Time;durP1;ratioP1;P1;durP2;ratioP2;P2;SDS_P1;SDS_P2;PMS_P1;PMS_P2;Temp;Humidity;BMP_temperature;BMP_pressure;BME280_temperature;BME280_humidity;BME280_pressure;Samples;Min_cycle;Max_cycle;Signal;HPM_P1;HPM_P2
2022/09/05 00:03:05;;;;;;;4.57;2.70;;;18.50;98.20;;;;;;5135678;27;20168;-85
2022/09/05 00:05:57;;;;;;;5.07;3.00;;;18.50;98.40;;;;;;5135990;27;20038;-84
2022/09/05 00:09:17;;;;;;;5.18;2.72;;;18.40;98.50;;;;;;5134132;27;20065;-84
2022/09/05 00:12:04;;;;;;;5.85;2.70;;;18.40;98.60;;;;;;5135888;27;20038;-84
2022/09/05 00:15:39;;;;;;;5.25;2.90;;;18.30;99.90;;;;;;5150551;27;20034;-85
2022/09/05 00:18:29;;;;;;;4.75;2.60;;;18.30;98.90;;;;;;5112432;27;20050;-89
2022/09/05 00:21:35;;;;;;;4.70;2.88;;;18.10;99.90;;;;;;5135630;27;20110;-82
2022/09/05 00:24:20;;;;;;;9.27;2.92;;;18.50;99.90;;;;;;5135616;27;20038;-84
2022/09/05 00:27:33;;;;;;;4.35;2.88;;;18.30;99.50;;;;;;5135522;27;20034;-85
2022/09/05 00:30:20;;;;;;;7.57;2.92;;;18.20;99.50;;;;;;5135293;27;20034;-85
2022/09/05 00:33:18;;;;;;;5.47;3.17;;;18.20;99.80;;;;;;5120115;27;20444;-85
2022/09/05 00:36:05;;;;;;;6.22;2.70;;;;;;;;;;5127529;27;20037;-85
2022/09/05 00:39:03;;;;;;;5.22;2.67;;;18.10;99.90;;;;;;5122615;27;20575;-84
2022/09/05 00:41:50;;;;;;;5.00;2.95;;;17.40;99.90;;;;;;5119339;27;20096;-84
2022/09/05 00:44:53;;;;;;;7.90;3.25;;;18.20;99.90;;;;;;5134964;27;20444;-85
2022/09/05 00:47:52;;;;;;;6.88;2.83;;;18.30;99.90;;;;;;5134666;27;20034;-85
2022/09/05 00:50:55;;;;;;;4.93;3.13;;;18.00;99.90;;;;;;5134522;27;20135;-85
2022/09/05 00:53:46;;;;;;;6.93;3.08;;;;;;;;;;5119097;27;20037;-85
2022/09/05 00:56:30;;;;;;;8.25;3.63;;;;;;;;;;5133432;27;20079;-84
2022/09/05 00:59:41;;;;;;;4.70;3.35;;;18.10;99.90;;;;;;5131886;27;20061;-85
2022/09/05 01:02:48;;;;;;;8.35;3.28;;;17.90;99.90;;;;;;5130111;27;20054;-85
2022/09/05 01:05:53;;;;;;;7.78;3.40;;;17.90;99.90;;;;;;5147525;27;20036;-85
2022/09/05 01:09:03;;;;;;;5.75;3.40;;;17.80;99.90;;;;;;5134531;27;20103;-85
2022/09/05 01:11:56;;;;;;;4.88;3.05;;;17.80;99.90;;;;;;5118558;27;20387;-85
2022/09/05 01:14:44;;;;;;;5.50;3.15;;;;;;;;;;5134283;27;20088;-85
2022/09/05 01:18:13;;;;;;;5.18;3.00;;;17.80;99.90;;;;;;5134667;27;20494;-85
2022/09/05 01:21:16;;;;;;;5.80;3.28;;;17.70;99.90;;;;;;5122172;27;20079;-84
2022/09/05 01:24:18;;;;;;;5.45;3.15;;;17.70;99.90;;;;;;5133251;27;20390;-85
2022/09/05 01:27:38;;;;;;;5.75;3.42;;;17.70;99.90;;;;;;5134243;27;20046;-85
2022/09/05 01:30:44;;;;;;;7.82;3.40;;;17.60;99.90;;;;;;5086027;27;20042;-85
2022/09/05 01:33:42;;;;;;;5.90;3.60;;;;;;;;;;5134359;27;20455;-85
2022/09/05 01:36:27;;;;;;;4.93;3.58;;;;;;;;;;5129488;27;20083;-84
2022/09/05 01:39:16;;;;;;;7.20;4.38;;;;;;;;;;5134848;27;20046;-85
2022/09/05 01:42:18;;;;;;;8.07;4.25;;;17.70;99.90;;;;;;5133926;27;20056;-85
2022/09/05 01:45:19;;;;;;;8.07;3.75;;;18.00;99.90;;;;;;5134009;27;20042;-84
2022/09/05 01:48:11;;;;;;;11.25;3.78;;;17.30;99.90;;;;;;5123467;27;20510;-84
2022/09/05 01:51:20;;;;;;;5.13;3.83;;;17.30;99.90;;;;;;5141533;27;20493;-85
2022/09/05 01:54:27;;;;;;;6.00;3.78;;;17.20;99.90;;;;;;5144507;27;20038;-84
2022/09/05 01:57:44;;;;;;;8.73;3.78;;;17.30;99.90;;;;;;5143560;27;20082;-85
2022/09/05 02:00:37;;;;;;;4.43;3.75;;;17.10;99.90;;;;;;5130353;27;20101;-85
2022/09/05 02:03:38;;;;;;;7.45;4.20;;;17.10;99.90;;;;;;5133632;27;20066;-85
2022/09/05 02:06:53;;;;;;;11.98;3.85;;;16.90;99.90;;;;;;5133531;27;20162;-85
2022/09/05 02:09:56;;;;;;;5.03;3.83;;;;;;;;;;5133302;27;20100;-85
2022/09/05 02:12:44;;;;;;;8.07;3.95;;;;;;;;;;5133173;27;20054;-82
2022/09/05 02:15:49;;;;;;;5.68;4.13;;;16.90;99.90;;;;;;5120277;27;20394;-82
2022/09/05 02:18:34;;;;;;;7.93;4.15;;;;;;;;;;5133642;27;20516;-84
2022/09/05 02:21:23;;;;;;;7.90;4.75;;;;;;;;;;5139827;27;20084;-82
2022/09/05 02:24:14;;;;;;;8.55;4.53;;;16.80;99.90;;;;;;5118149;27;20034;-82
2022/09/05 02:26:59;;;;;;;6.85;4.55;;;;;;;;;;5141035;27;20770;-85
2022/09/05 02:30:08;;;;;;;6.65;4.43;;;16.50;99.90;;;;;;5136593;27;20046;-84
2022/09/05 02:33:16;;;;;;;7.65;4.55;;;16.40;99.90;;;;;;5132905;27;20038;-84
2022/09/05 02:36:06;;;;;;;5.95;4.78;;;;;;;;;;5129547;27;20086;-84
2022/09/05 02:39:18;;;;;;;8.45;4.55;;;16.60;99.90;;;;;;5130471;28;20099;-84
2022/09/05 02:42:13;;;;;;;13.82;5.18;;;;;;;;;;5130867;27;20514;-85
2022/09/05 02:45:16;;;;;;;5.13;4.45;;;17.30;99.90;;;;;;5132723;27;20107;-85
2022/09/05 02:48:31;;;;;;;6.68;4.72;;;16.50;99.90;;;;;;5132681;27;20611;-85
2022/09/05 02:51:37;;;;;;;6.55;4.63;;;16.40;99.90;;;;;;5129511;27;20038;-85
2022/09/05 02:54:32;;;;;;;6.50;4.97;;;16.40;99.90;;;;;;5145058;27;20038;-85
2022/09/05 02:57:29;;;;;;;6.45;5.07;;;;;;;;;;5133099;27;20030;-84
2022/09/05 03:00:22;;;;;;;9.35;5.00;;;16.30;99.90;;;;;;5133042;27;20081;-85
2022/09/05 03:03:07;;;;;;;7.00;4.53;;;;;;;;;;5132836;27;20142;-85
2022/09/05 03:06:07;;;;;;;6.10;4.47;;;;;;;;;;5137705;27;20484;-85
2022/09/05 03:09:03;;;;;;;11.55;5.22;;;;;;;;;;5121243;27;20398;-85
2022/09/05 03:12:18;;;;;;;10.18;5.50;;;16.10;99.90;;;;;;5147246;27;20114;-85
2022/09/05 03:15:06;;;;;;;8.00;5.20;;;;;;;;;;5132371;27;20084;-85
2022/09/05 03:18:17;;;;;;;8.38;5.70;;;16.10;99.90;;;;;;5116932;28;20469;-85
2022/09/05 03:21:02;;;;;;;5.72;5.13;;;;;;;;;;5132549;27;20039;-84
2022/09/05 03:24:24;;;;;;;7.72;5.72;;;15.90;99.90;;;;;;5117029;27;20486;-87
2022/09/05 03:27:46;;;;;;;6.18;5.47;;;15.70;99.90;;;;;;5132513;27;20035;-85
2022/09/05 03:30:34;;;;;;;5.97;5.30;;;;;;;;;;5128749;27;20394;-86
2022/09/05 03:33:57;;;;;;;10.63;5.80;;;15.90;99.90;;;;;;5117285;28;20083;-85
2022/09/05 03:37:10;;;;;;;6.50;5.70;;;15.80;99.90;;;;;;5132886;27;20027;-84
2022/09/05 03:40:07;;;;;;;7.88;5.20;;;;;;;;;;5116676;27;20037;-84
2022/09/05 03:42:55;;;;;;;7.68;5.78;;;;;;;;;;5132641;27;20038;-85
2022/09/05 03:46:07;;;;;;;9.95;5.57;;;15.70;99.90;;;;;;5121026;27;20083;-84
2022/09/05 03:49:07;;;;;;;6.80;5.70;;;;;;;;;;5136012;27;20080;-85
2022/09/05 03:52:16;;;;;;;9.10;6.10;;;15.60;99.90;;;;;;5135761;27;20382;-84
2022/09/05 03:55:26;;;;;;;8.25;6.20;;;15.60;99.90;;;;;;5150509;27;20030;-83
2022/09/05 03:58:10;;;;;;;8.70;6.32;;;;;;;;;;5135639;27;20045;-85
2022/09/05 04:00:59;;;;;;;11.23;6.03;;;;;;;;;;5119918;27;20502;-85
2022/09/05 04:03:44;;;;;;;8.85;6.75;;;;;;;;;;5135897;27;20054;-81
2022/09/05 04:06:33;;;;;;;10.07;6.22;;;15.40;99.90;;;;;;5136010;27;20030;-84
2022/09/05 04:09:26;;;;;;;8.43;6.47;;;;;;;;;;5135890;27;20051;-84
2022/09/05 04:12:11;;;;;;;6.50;5.78;;;;;;;;;;5150008;27;20552;-81
2022/09/05 04:15:16;;;;;;;7.90;6.57;;;;;;;;;;5135403;27;20119;-81
2022/09/05 04:18:20;;;;;;;11.40;6.53;;;15.40;99.90;;;;;;5135348;27;20046;-81
2022/09/05 04:21:09;;;;;;;8.40;6.63;;;;;;;;;;5119817;27;20076;-84
2022/09/05 04:24:00;;;;;;;8.43;6.50;;;15.10;99.90;;;;;;5119396;27;20046;-86
2022/09/05 04:27:21;;;;;;;9.93;6.93;;;15.20;99.90;;;;;;5155179;27;20587;-82
2022/09/05 04:30:19;;;;;;;7.35;6.60;;;;;;;;;;5134842;27;20496;-82
2022/09/05 04:33:23;;;;;;;8.63;6.90;;;;;;;;;;5135107;27;20100;-82
2022/09/05 04:36:20;;;;;;;9.77;6.13;;;;;;;;;;5135107;27;20043;-82
2022/09/05 04:39:08;;;;;;;8.35;7.18;;;;;;;;;;5134711;27;20111;-81
2022/09/05 04:41:59;;;;;;;9.48;6.72;;;;;;;;;;5135197;27;20038;-82
2022/09/05 04:44:56;;;;;;;12.20;6.90;;;;;;;;;;5119490;27;20038;-85
2022/09/05 04:47:44;;;;;;;8.65;7.35;;;;;;;;;;5135072;27;20034;-82
2022/09/05 04:50:29;;;;;;;11.02;7.45;;;;;;;;;;5135083;27;20034;-82
2022/09/05 04:53:36;;;;;;;10.80;7.25;;;;;;;;;;5119128;27;20046;-82
2022/09/05 04:56:27;;;;;;;12.35;7.55;;;15.00;99.90;;;;;;5118958;27;20038;-84
2022/09/05 04:59:18;;;;;;;10.38;8.32;;;;;;;;;;5145260;27;20045;-82
2022/09/05 05:02:26;;;;;;;11.90;8.48;;;15.00;99.90;;;;;;5143131;27;20034;-81
2022/09/05 05:05:22;;;;;;;8.82;7.82;;;15.00;99.90;;;;;;5134508;27;20080;-82
2022/09/05 05:08:38;;;;;;;10.25;7.90;;;15.00;99.90;;;;;;5135695;27;20050;-82
2022/09/05 05:11:44;;;;;;;12.02;8.38;;;15.00;99.90;;;;;;5148589;27;20539;-82
2022/09/05 05:14:32;;;;;;;10.98;8.98;;;15.00;99.90;;;;;;5134629;27;20443;-82
2022/09/05 05:17:17;;;;;;;10.90;8.52;;;;;;;;;;5134214;27;20040;-82
2022/09/05 05:20:07;;;;;;;11.60;8.45;;;;;;;;;;5134084;27;20065;-84
2022/09/05 05:23:01;;;;;;;9.88;8.00;;;;;;;;;;5142366;27;20402;-82
2022/09/05 05:25:50;;;;;;;9.30;7.90;;;;;;;;;;5140614;27;20151;-83
2022/09/05 05:28:47;;;;;;;10.77;8.73;;;;;;;;;;5127477;27;20443;-83
2022/09/05 05:31:39;;;;;;;10.60;7.68;;;15.10;99.90;;;;;;5140399;27;20163;-83
2022/09/05 05:34:26;;;;;;;9.52;8.25;;;;;;;;;;5142952;27;20034;-84
2022/09/05 05:37:17;;;;;;;11.75;8.02;;;;;;;;;;5150246;27;20041;-84
2022/09/05 05:40:18;;;;;;;9.13;8.23;;;;;;;;;;5118701;27;20091;-85
2022/09/05 05:43:21;;;;;;;13.32;7.95;;;15.30;99.90;;;;;;5134072;27;20076;-85
2022/09/05 05:46:06;;;;;;;12.30;8.83;;;;;;;;;;5133871;27;20026;-85
2022/09/05 05:48:52;;;;;;;9.23;7.95;;;;;;;;;;5133900;27;20038;-84
2022/09/05 05:51:52;;;;;;;15.20;9.02;;;15.30;99.90;;;;;;5134267;27;20039;-85
2022/09/05 05:54:40;;;;;;;9.32;8.10;;;;;;;;;;5133962;27;20450;-85
2022/09/05 05:57:43;;;;;;;11.68;7.78;;;15.50;99.90;;;;;;5133291;27;20030;-83
2022/09/05 06:01:14;;;;;;;11.60;8.15;;;15.50;99.90;;;;;;5133279;27;20042;-83
2022/09/05 06:03:59;;;;;;;10.10;8.18;;;;;;;;;;5133389;27;20064;-82
2022/09/05 06:06:44;;;;;;;10.20;7.93;;;;;;;;;;5132913;27;20087;-82
2022/09/05 06:09:48;;;;;;;10.07;7.85;;;15.70;99.90;;;;;;5133316;27;20216;-82
2022/09/05 06:13:18;;;;;;;9.25;7.35;;;15.80;99.90;;;;;;5117428;27;20042;-82
2022/09/05 06:16:06;;;;;;;9.65;7.90;;;;;;;;;;5121072;27;20046;-82
2022/09/05 06:19:27;;;;;;;12.00;8.15;;;;;;;;;;5117815;27;20095;-84
2022/09/05 06:22:49;;;;;;;11.82;7.70;;;16.10;99.90;;;;;;5035735;28;20123;-83
2022/09/05 06:25:52;;;;;;;9.20;8.18;;;;;;;;;;5141398;27;20050;-81
2022/09/05 06:28:43;;;;;;;9.15;8.02;;;;;;;;;;5126865;27;20061;-82
2022/09/05 06:32:02;;;;;;;11.63;7.35;;;16.40;99.90;;;;;;5134117;27;20037;-85
2022/09/05 06:35:23;;;;;;;9.75;7.75;;;16.50;99.90;;;;;;5132236;27;20058;-86
2022/09/05 06:38:26;;;;;;;8.27;7.40;;;;;;;;;;5133114;27;20087;-83
2022/09/05 06:41:14;;;;;;;9.82;6.78;;;;;;;;;;5117680;27;20066;-82
2022/09/05 06:44:01;;;;;;;11.05;7.55;;;;;;;;;;5133210;27;20043;-85
2022/09/05 06:46:48;;;;;;;12.90;7.18;;;;;;;;;;5117552;27;20031;-85
2022/09/05 06:50:06;;;;;;;8.88;6.35;;;17.30;99.90;;;;;;5132712;27;20547;-83
2022/09/05 06:53:28;;;;;;;7.57;6.78;;;17.50;99.90;;;;;;5130633;27;20072;-84
2022/09/05 06:56:24;;;;;;;8.93;6.50;;;;;;;;;;5132909;27;20038;-84
2022/09/05 06:59:15;;;;;;;10.63;6.30;;;;;;;;;;5129140;28;20050;-84
2022/09/05 07:02:18;;;;;;;10.07;6.45;;;;;;;;;;5132860;27;20043;-82
2022/09/05 07:05:37;;;;;;;8.50;6.57;;;18.30;99.90;;;;;;5132777;27;20091;-83
2022/09/05 07:08:59;;;;;;;8.68;6.18;;;18.50;99.90;;;;;;5132406;27;20133;-85
2022/09/05 07:11:44;;;;;;;6.53;5.60;;;;;;;;;;5091077;27;20611;-84
2022/09/05 07:14:31;;;;;;;9.45;5.78;;;;;;;;;;5141627;27;20493;-86
2022/09/05 07:17:19;;;;;;;7.18;5.53;;;;;;;;;;5120591;27;20035;-85
2022/09/05 07:20:19;;;;;;;10.20;6.05;;;;;;;;;;5150046;27;20493;-86
2022/09/05 07:23:13;;;;;;;6.63;5.68;;;;;;;;;;5136866;27;20150;-86
2022/09/05 07:25:57;;;;;;;;;;;;;;;;;;5137318;27;20030;-86
2022/09/05 07:28:43;;;;;;;8.18;4.65;;;;;;;;;;5126096;27;20186;-87
2022/09/05 07:31:28;;;;;;;6.55;5.35;;;;;;;;;;5136402;27;20038;-86
2022/09/05 07:34:32;;;;;;;9.50;4.93;;;;;;;;;;5120893;27;20044;-87
2022/09/05 07:37:26;;;;;;;6.13;4.95;;;;;;;;;;5120861;27;20050;-87
2022/09/05 07:40:17;;;;;;;7.80;4.90;;;26.90;92.30;;;;;;5120727;27;20088;-87
2022/09/05 07:43:11;;;;;;;9.05;5.03;;;26.80;90.80;;;;;;5136502;27;20402;-86
2022/09/05 07:46:01;;;;;;;;;;;26.70;90.50;;;;;;5136780;27;20473;-86
2022/09/05 07:48:52;;;;;;;9.32;4.55;;;;;;;;;;5132300;27;19914;-87
2022/09/05 07:51:39;;;;;;;8.05;4.20;;;;;;;;;;5135967;27;20030;-86
2022/09/05 07:54:31;;;;;;;7.35;3.67;;;26.40;89.50;;;;;;5150686;27;20034;-87
2022/09/05 07:57:20;;;;;;;6.70;4.20;;;26.30;90.00;;;;;;5136349;27;20084;-87
2022/09/05 08:00:09;;;;;;;7.88;4.25;;;26.40;89.70;;;;;;5136029;27;20061;-86
2022/09/05 08:02:54;;;;;;;8.35;3.97;;;;;;;;;;5134714;27;20037;-87
2022/09/05 08:05:42;;;;;;;8.27;4.18;;;;;;;;;;5120071;27;20040;-86
2022/09/05 08:08:50;;;;;;;8.02;4.00;;;26.20;89.00;;;;;;5135745;27;20054;-86
2022/09/05 08:11:35;;;;;;;8.68;3.75;;;;;;;;;;5131278;27;20062;-86
2022/09/05 08:15:08;;;;;;;7.10;4.25;;;26.10;88.80;;;;;;5135869;27;20035;-86
2022/09/05 08:18:05;;;;;;;8.38;4.03;;;;;;;;;;5148744;27;20074;-86
2022/09/05 08:21:04;;;;;;;5.82;3.80;;;;;;;;;;5129501;27;20099;-87
2022/09/05 08:24:10;;;;;;;4.38;3.55;;;26.50;87.60;;;;;;5125670;27;20219;-86
2022/09/05 08:26:54;;;;;;;7.10;3.70;;;;;;;;;;5135374;27;20070;-86
2022/09/05 08:29:41;;;;;;;9.00;3.83;;;26.80;86.60;;;;;;5134239;27;20038;-87
2022/09/05 08:32:43;;;;;;;10.45;3.78;;;26.80;85.90;;;;;;5132974;27;20065;-87
2022/09/05 08:35:42;;;;;;;7.13;3.70;;;26.80;85.60;;;;;;5148311;27;20033;-87
2022/09/05 08:38:28;;;;;;;10.10;3.58;;;;;;;;;;5154942;27;20041;-88
2022/09/05 08:41:13;;;;;;;7.30;3.55;;;;;;;;;;5122423;27;20079;-87
2022/09/05 08:44:29;;;;;;;4.75;3.63;;;26.60;85.50;;;;;;5119750;27;20505;-86
2022/09/05 08:47:46;;;;;;;4.88;3.75;;;26.50;84.40;;;;;;5135466;27;20058;-86
2022/09/05 08:50:53;;;;;;;5.57;3.33;;;26.40;86.00;;;;;;5135449;27;20042;-87
2022/09/05 08:53:55;;;;;;;9.65;3.88;;;26.20;85.70;;;;;;5134855;27;20068;-88
2022/09/05 08:56:56;;;;;;;7.80;4.00;;;26.10;86.90;;;;;;5127414;27;20038;-87
2022/09/05 08:59:56;;;;;;;7.63;3.50;;;26.30;87.40;;;;;;5128692;27;20497;-86
2022/09/05 09:03:11;;;;;;;5.95;3.25;;;26.50;88.50;;;;;;5119073;27;20072;-86
2022/09/05 09:05:56;;;;;;;5.57;4.30;;;;;;;;;;5119017;27;20099;-87
2022/09/05 09:08:52;;;;;;;8.25;4.05;;;27.20;99.40;;;;;;5134273;27;20116;-87
2022/09/05 09:11:51;;;;;;;4.78;3.90;;;;;;;;;;5118843;27;20502;-88
2022/09/05 09:14:58;;;;;;;6.18;3.88;;;27.10;97.90;;;;;;5119305;27;20034;-86
2022/09/05 09:17:45;;;;;;;8.48;3.70;;;27.80;85.00;;;;;;5148567;27;20045;-88
2022/09/05 09:20:47;;;;;;;6.63;3.38;;;28.00;99.10;;;;;;5104609;27;20442;-88
2022/09/05 09:23:32;;;;;;;7.75;3.60;;;;;;;;;;5134662;27;20038;-87
2022/09/05 09:26:20;;;;;;;5.78;3.47;;;28.40;81.90;;;;;;5141905;27;20043;-86
2022/09/05 09:29:07;;;;;;;7.97;3.58;;;28.40;80.60;;;;;;5134185;27;20041;-86
2022/09/05 09:32:13;;;;;;;5.53;3.20;;;27.70;95.30;;;;;;5118244;27;20034;-87
2022/09/05 09:35:06;;;;;;;6.07;2.95;;;28.20;95.60;;;;;;5132625;27;20037;-87
2022/09/05 09:37:50;;;;;;;7.20;3.35;;;;;;;;;;5133979;27;20399;-87
2022/09/05 09:41:16;;;;;;;9.23;3.33;;;29.40;94.60;;;;;;5118654;27;20030;-87
2022/09/05 09:44:25;;;;;;;5.60;3.25;;;29.00;94.20;;;;;;5118243;27;20092;-87
2022/09/05 09:47:15;;;;;;;5.70;3.40;;;28.70;78.50;;;;;;5118361;27;20114;-87
2022/09/05 09:50:30;;;;;;;8.10;3.63;;;28.70;78.50;;;;;;5148140;27;20099;-87
2022/09/05 09:53:42;;;;;;;6.90;3.20;;;28.80;78.20;;;;;;5134090;27;20506;-90
2022/09/05 09:57:03;;;;;;;6.78;3.08;;;28.80;93.20;;;;;;5118495;27;20033;-87
2022/09/05 10:00:11;;;;;;;8.75;3.55;;;29.80;92.20;;;;;;5128559;27;20042;-87
2022/09/05 10:03:26;;;;;;;6.82;3.20;;;28.90;91.70;;;;;;5133359;27;20038;-88
2022/09/05 10:06:17;;;;;;;4.65;3.03;;;29.40;91.00;;;;;;5118030;27;20034;-86
2022/09/05 10:09:20;;;;;;;5.15;3.00;;;30.00;90.90;;;;;;5132929;27;20285;-87
2022/09/05 10:12:11;;;;;;;;;;;29.80;75.50;;;;;;5118421;27;20047;-88
2022/09/05 10:14:56;;;;;;;6.45;2.90;;;;;;;;;;5133279;27;19929;-86
2022/09/05 10:18:21;;;;;;;5.28;2.90;;;29.90;75.10;;;;;;5133441;27;20038;-87
2022/09/05 10:21:43;;;;;;;5.50;2.97;;;29.80;90.10;;;;;;5109054;27;20119;-87
2022/09/05 10:24:44;;;;;;;3.42;2.67;;;;;;;;;;5132364;27;20383;-86
2022/09/05 10:28:00;;;;;;;5.00;2.75;;;30.30;73.30;;;;;;5118001;27;20130;-87
2022/09/05 10:30:50;;;;;;;4.22;2.67;;;30.30;71.20;;;;;;5133393;27;20041;-87
2022/09/05 10:33:35;;;;;;;7.07;2.88;;;;;;;;;;5146990;27;20132;-87
2022/09/05 10:36:26;;;;;;;4.28;2.60;;;30.30;69.50;;;;;;5145591;27;20034;-88
2022/09/05 10:39:29;;;;;;;3.50;2.50;;;30.40;68.40;;;;;;5141554;27;20414;-89
2022/09/05 10:42:25;;;;;;;3.95;2.40;;;30.50;67.80;;;;;;5133330;27;20054;-86
2022/09/05 10:45:27;;;;;;;3.60;2.47;;;30.50;67.70;;;;;;5117209;27;20103;-88
2022/09/05 10:48:25;;;;;;;5.28;2.40;;;30.60;67.70;;;;;;5131727;27;20095;-87
2022/09/05 10:51:31;;;;;;;5.05;2.65;;;30.70;85.00;;;;;;5117385;27;20083;-89
2022/09/05 10:54:18;;;;;;;5.50;2.38;;;;;;;;;;5137539;27;20110;-86
2022/09/05 10:57:03;;;;;;;4.43;2.40;;;;;;;;;;5121409;27;20100;-86
2022/09/05 11:00:28;;;;;;;4.65;2.20;;;31.20;77.90;;;;;;5137253;27;20088;-87
2022/09/05 11:03:21;;;;;;;4.68;2.13;;;31.40;64.00;;;;;;5136945;27;20399;-87
2022/09/05 11:06:13;;;;;;;4.70;2.45;;;32.10;75.30;;;;;;5146408;27;20547;-87
2022/09/05 11:09:22;;;;;;;4.15;2.55;;;32.20;74.40;;;;;;5122426;27;20103;-88
2022/09/05 11:12:28;;;;;;;3.38;2.35;;;31.50;62.70;;;;;;5136581;27;20088;-88
2022/09/05 11:15:51;;;;;;;5.28;2.67;;;32.00;76.60;;;;;;5136562;27;20123;-87
2022/09/05 11:19:13;;;;;;;7.68;3.33;;;31.50;61.50;;;;;;5136907;27;20038;-89
2022/09/05 11:22:06;;;;;;;5.28;2.70;;;31.40;61.60;;;;;;5135429;27;20509;-87
2022/09/05 11:25:03;;;;;;;5.13;2.00;;;31.90;77.20;;;;;;5147806;27;20042;-86
2022/09/05 11:27:51;;;;;;;5.00;2.38;;;31.60;62.00;;;;;;5121043;27;20030;-87
2022/09/05 11:30:39;;;;;;;4.05;2.10;;;31.80;61.80;;;;;;5136776;27;20037;-86
2022/09/05 11:33:47;;;;;;;4.95;2.20;;;32.00;71.40;;;;;;5136709;27;20441;-85
2022/09/05 11:36:45;;;;;;;6.45;2.20;;;32.10;60.80;;;;;;5121002;27;20496;-85
2022/09/05 11:39:38;;;;;;;5.40;2.63;;;32.40;69.90;;;;;;5136635;27;20103;-86
2022/09/05 11:42:25;;;;;;;4.82;1.95;;;31.90;68.30;;;;;;5121052;27;20089;-87
2022/09/05 11:45:15;;;;;;;5.25;2.10;;;31.60;67.50;;;;;;5120291;27;20029;-85
2022/09/05 11:48:34;;;;;;;4.18;2.45;;;31.70;67.60;;;;;;5135998;27;20042;-88
2022/09/05 11:51:19;;;;;;;6.05;2.40;;;;;;;;;;5067036;27;20104;-87
2022/09/05 11:54:12;;;;;;;5.13;2.30;;;31.50;67.30;;;;;;5120439;27;20390;-85
2022/09/05 11:57:18;;;;;;;4.82;2.10;;;31.70;58.30;;;;;;5135564;27;20034;-89
2022/09/05 12:00:20;;;;;;;4.45;1.88;;;31.00;68.90;;;;;;5135498;27;20069;-86
2022/09/05 12:03:20;;;;;;;5.85;2.00;;;30.90;66.60;;;;;;5148729;27;20583;-86
2022/09/05 12:06:46;;;;;;;4.65;2.05;;;29.90;72.80;;;;;;5135714;27;20498;-86
2022/09/05 12:09:32;;;;;;;2.80;1.83;;;;;;;;;;5136117;27;20556;-86
2022/09/05 12:12:28;;;;;;;4.18;1.92;;;31.30;59.30;;;;;;5130124;27;20117;-85
2022/09/05 12:15:32;;;;;;;6.25;2.10;;;31.40;59.20;;;;;;5143919;27;20035;-85
2022/09/05 12:18:34;;;;;;;3.50;2.08;;;31.50;66.40;;;;;;5144748;27;20078;-85
2022/09/05 12:21:45;;;;;;;5.70;1.98;;;32.70;68.80;;;;;;5140522;27;20757;-85
2022/09/05 12:24:39;;;;;;;4.47;2.22;;;32.10;58.50;;;;;;5137462;27;20026;-86
2022/09/05 12:27:29;;;;;;;4.22;2.13;;;32.30;57.00;;;;;;5149325;27;20037;-85
2022/09/05 12:30:22;;;;;;;4.68;2.03;;;32.40;57.40;;;;;;5128473;27;20034;-85
2022/09/05 12:33:12;;;;;;;;;;;32.30;58.10;;;;;;5141656;27;20170;-88
2022/09/05 12:36:02;;;;;;;3.58;1.88;;;;;;;;;;5140544;27;19914;-86
2022/09/05 12:39:18;;;;;;;3.92;1.90;;;32.00;72.90;;;;;;5147085;27;20458;-85
2022/09/05 12:42:17;;;;;;;4.68;2.17;;;32.20;55.80;;;;;;5127347;27;20057;-86
2022/09/05 12:45:39;;;;;;;5.38;2.28;;;32.40;68.50;;;;;;5136968;27;20050;-86
2022/09/05 12:48:42;;;;;;;4.35;2.22;;;32.20;64.90;;;;;;5134719;27;20032;-85
2022/09/05 12:51:32;;;;;;;6.75;1.88;;;32.10;67.60;;;;;;5134651;27;20034;-85
2022/09/05 12:54:32;;;;;;;4.28;2.10;;;32.40;65.40;;;;;;5135078;27;20053;-86
2022/09/05 12:57:28;;;;;;;4.65;1.88;;;32.50;55.40;;;;;;5135417;27;20107;-86
2022/09/05 13:00:20;;;;;;;3.10;1.58;;;31.90;64.20;;;;;;5144253;27;20042;-85
2022/09/05 13:03:06;;;;;;;4.53;1.70;;;;;;;;;;5120392;27;20399;-86
2022/09/05 13:05:57;;;;;;;4.57;1.80;;;32.60;53.70;;;;;;5134975;27;20073;-85
2022/09/05 13:08:56;;;;;;;4.95;2.08;;;32.60;54.40;;;;;;5128151;27;20552;-86
2022/09/05 13:12:13;;;;;;;5.53;1.98;;;32.50;53.30;;;;;;5135400;27;20052;-85
2022/09/05 13:15:07;;;;;;;4.05;2.28;;;32.20;53.30;;;;;;5118782;27;20395;-85
2022/09/05 13:18:09;;;;;;;3.85;2.15;;;31.70;62.00;;;;;;5148945;27;20493;-85
2022/09/05 13:21:04;;;;;;;3.78;1.88;;;32.40;63.90;;;;;;5118988;27;20038;-86
2022/09/05 13:24:08;;;;;;;3.00;1.83;;;31.60;53.70;;;;;;5134517;27;20032;-86
2022/09/05 13:27:14;;;;;;;6.18;2.05;;;31.60;54.30;;;;;;5118997;27;20038;-85
2022/09/05 13:30:07;;;;;;;6.32;2.00;;;31.50;63.20;;;;;;5134668;27;20046;-85
2022/09/05 13:32:55;;;;;;;2.30;1.52;;;31.60;54.10;;;;;;5133521;27;20114;-85
2022/09/05 13:36:04;;;;;;;4.57;1.90;;;31.60;54.70;;;;;;5118799;27;20034;-85
2022/09/05 13:39:00;;;;;;;2.97;1.60;;;32.00;53.50;;;;;;5118589;27;20042;-84
2022/09/05 13:42:02;;;;;;;4.90;1.80;;;31.60;62.50;;;;;;5137681;27;20041;-85
2022/09/05 13:44:54;;;;;;;3.08;1.70;;;32.10;53.00;;;;;;5139933;27;20038;-87
2022/09/05 13:47:38;;;;;;;3.00;1.80;;;;;;;;;;5134233;27;20105;-84
2022/09/05 13:50:27;;;;;;;4.28;1.90;;;31.50;53.00;;;;;;5117950;27;20446;-83
2022/09/05 13:53:26;;;;;;;5.32;1.80;;;31.60;68.00;;;;;;5118052;27;20029;-85
2022/09/05 13:56:25;;;;;;;4.43;2.08;;;30.80;54.90;;;;;;5133817;27;20496;-88
2022/09/05 13:59:13;;;;;;;2.60;1.80;;;31.10;54.80;;;;;;5143381;27;20068;-82
2022/09/05 14:02:35;;;;;;;4.20;1.95;;;31.30;70.00;;;;;;5133619;27;20038;-86
2022/09/05 14:05:31;;;;;;;4.30;1.77;;;31.50;54.40;;;;;;5117000;27;20114;-85
2022/09/05 14:08:41;;;;;;;3.30;1.77;;;31.70;52.70;;;;;;5133335;27;20065;-86
2022/09/05 14:11:26;;;;;;;3.85;1.70;;;;;;;;;;5117672;27;20437;-82
2022/09/05 14:14:12;;;;;;;3.22;1.80;;;;;;;;;;5124884;27;20567;-84
2022/09/05 14:17:08;;;;;;;2.70;1.60;;;31.50;63.50;;;;;;5122475;27;20080;-82
2022/09/05 14:23:06;;;;;;;3.55;1.63;;;32.40;64.40;;;;;;5133505;27;20088;-82
2022/09/05 14:25:59;;;;;;;2.28;1.48;;;31.70;51.80;;;;;;5147830;27;20064;-85
2022/09/05 14:29:31;;;;;;;5.22;1.67;;;31.50;64.20;;;;;;5133075;27;20095;-85
2022/09/05 14:32:33;;;;;;;6.35;1.50;;;31.40;51.30;;;;;;5118003;28;20157;-89
2022/09/05 14:35:28;;;;;;;4.32;1.80;;;31.30;51.60;;;;;;5133144;27;20395;-85
2022/09/05 14:38:36;;;;;;;3.85;1.70;;;31.30;51.60;;;;;;5147744;27;20046;-85
2022/09/05 14:41:51;;;;;;;6.57;1.70;;;31.20;64.20;;;;;;5132634;27;20468;-85
2022/09/05 14:45:13;;;;;;;4.82;1.70;;;30.50;70.50;;;;;;5118066;27;20034;-84
2022/09/05 14:48:23;;;;;;;3.35;1.95;;;30.70;60.60;;;;;;5123423;27;20042;-87
2022/09/05 14:51:13;;;;;;;5.30;1.75;;;30.40;63.40;;;;;;5117656;28;20112;-84
2022/09/05 14:53:58;;;;;;;7.93;2.17;;;;;;;;;;5141167;27;20034;-85
2022/09/05 14:57:04;;;;;;;3.53;1.60;;;30.10;65.70;;;;;;5120702;27;20053;-85
2022/09/05 14:59:52;;;;;;;5.97;1.80;;;30.40;53.40;;;;;;5133074;27;20038;-84
2022/09/05 15:02:41;;;;;;;3.78;1.92;;;30.20;53.40;;;;;;5132725;27;20100;-86
2022/09/05 15:05:26;;;;;;;2.92;1.70;;;;;;;;;;5132671;27;20068;-85
2022/09/05 15:08:19;;;;;;;5.45;1.90;;;30.10;54.10;;;;;;5130793;27;20057;-86
2022/09/05 15:11:08;;;;;;;4.82;1.85;;;30.00;53.20;;;;;;5144899;27;20054;-85
2022/09/05 15:14:03;;;;;;;7.25;2.00;;;29.90;63.20;;;;;;5133067;27;20038;-86
2022/09/05 15:17:03;;;;;;;3.00;1.60;;;29.80;64.20;;;;;;5132829;27;20039;-85
2022/09/05 15:19:58;;;;;;;4.75;2.10;;;29.80;54.00;;;;;;5133002;27;20089;-85
2022/09/05 15:22:50;;;;;;;3.55;1.58;;;29.80;55.10;;;;;;5132552;27;20094;-86
2022/09/05 15:26:05;;;;;;;3.08;1.80;;;28.90;63.10;;;;;;5125528;28;20177;-85
2022/09/05 15:28:50;;;;;;;5.95;1.80;;;29.90;54.40;;;;;;5116763;28;20092;-85
2022/09/05 15:31:35;;;;;;;2.20;1.60;;;;;;;;;;5116919;27;20480;-85
2022/09/05 15:34:24;;;;;;;5.90;1.77;;;29.80;54.20;;;;;;5133130;27;20432;-85
2022/09/05 15:37:40;;;;;;;3.25;1.67;;;29.20;65.10;;;;;;5132882;27;20088;-85
2022/09/05 15:40:25;;;;;;;4.60;2.10;;;;;;;;;;5120712;27;20501;-85
2022/09/05 15:43:15;;;;;;;3.00;2.00;;;29.70;54.50;;;;;;5144906;27;20044;-84
2022/09/05 15:46:02;;;;;;;4.72;2.05;;;29.50;55.00;;;;;;5145966;27;20038;-85
2022/09/05 15:48:54;;;;;;;3.28;2.20;;;29.50;54.50;;;;;;5140479;27;20035;-85
2022/09/05 15:51:51;;;;;;;6.55;1.58;;;29.50;54.20;;;;;;5120519;27;20481;-84
2022/09/05 15:54:45;;;;;;;3.70;1.85;;;29.40;55.00;;;;;;5120804;27;20052;-85
2022/09/05 15:57:39;;;;;;;4.85;1.88;;;29.50;54.80;;;;;;5135803;27;20030;-84
2022/09/05 16:00:32;;;;;;;4.45;1.80;;;28.90;62.90;;;;;;5134190;27;20091;-84
2022/09/05 16:03:17;;;;;;;;;;;29.50;55.00;;;;;;5136493;27;20072;-84
2022/09/05 16:06:06;;;;;;;8.32;6.25;;;29.20;64.70;;;;;;5120406;27;19956;-85
2022/09/05 16:08:55;;;;;;;8.10;3.80;;;29.30;55.10;;;;;;5114065;28;20090;-85
2022/09/05 16:11:40;;;;;;;3.92;2.00;;;29.00;55.50;;;;;;5115000;28;20050;-85
2022/09/05 16:14:32;;;;;;;2.35;1.67;;;29.00;55.90;;;;;;5116913;27;20112;-85